createdAt,value
2023-02-11T00:02:14.347Z,102014.64
2023-02-11T00:07:37.180Z,101996.88
2023-02-11T00:12:59.429Z,102041.95
2023-02-11T00:18:21.847Z,102015.41
2023-02-11T00:23:44.737Z,102026.05
2023-02-11T00:29:08.183Z,102005.81
2023-02-11T00:34:31.021Z,102001.46
2023-02-11T00:39:54.022Z,101976.73
2023-02-11T00:45:16.758Z,101941.44
2023-02-11T00:50:38.969Z,101922.13
2023-02-11T00:56:01.732Z,101921.22
2023-02-11T01:01:24.946Z,101914.18
2023-02-11T01:06:47.218Z,101931.71
2023-02-11T01:12:09.622Z,101916.83
2023-02-11T01:17:31.822Z,101886.80
2023-02-11T01:22:54.410Z,101870.04
2023-02-11T01:28:21.284Z,101867.39
2023-02-11T01:33:43.660Z,101859.44
2023-02-11T01:39:05.852Z,101844.36
2023-02-11T01:44:46.390Z,101848.75
2023-02-11T01:50:12.149Z,101838.19
2023-02-11T01:55:52.741Z,101824.11
2023-02-11T02:01:17.965Z,101802.99
2023-02-11T02:06:54.357Z,101798.60
2023-02-11T02:12:16.948Z,101801.33
2023-02-11T02:17:46.279Z,101788.00
2023-02-11T02:23:19.268Z,101783.66
2023-02-11T02:29:19.633Z,101766.02
2023-02-11T02:34:49.598Z,101753.69
2023-02-11T02:40:06.276Z,101737.78
2023-02-11T02:45:30.550Z,101736.00
2023-02-11T02:50:54.489Z,101721.06
2023-02-11T02:56:20.933Z,101723.02
2023-02-11T03:02:06.669Z,101731.87
2023-02-11T03:07:36.831Z,101715.03
2023-02-11T03:13:01.193Z,101686.80
2023-02-11T03:18:27.849Z,101698.26
2023-02-11T03:24:00.074Z,101676.20
2023-02-11T03:29:35.877Z,101674.41
2023-02-11T03:35:26.314Z,101654.22
2023-02-11T03:40:52.007Z,101652.40
2023-02-11T03:46:16.331Z,101671.85
2023-02-11T03:51:41.391Z,101660.30
2023-02-11T03:57:10.410Z,101619.66
2023-02-11T04:02:40.447Z,101617.05
2023-02-11T04:08:02.866Z,101632.12
2023-02-11T04:13:25.258Z,101611.75
2023-02-11T04:18:47.544Z,101600.28
2023-02-11T04:24:09.838Z,101595.80
2023-02-11T04:29:32.571Z,101596.67
2023-02-11T04:34:55.552Z,101587.00
2023-02-11T04:40:18.225Z,101603.80
2023-02-11T04:45:41.006Z,101585.34
2023-02-11T04:51:03.447Z,101584.44
2023-02-11T04:56:25.738Z,101592.38
2023-02-11T05:01:48.304Z,101584.44
2023-02-11T05:07:11.018Z,101576.58
2023-02-11T05:12:33.225Z,101551.78
2023-02-11T05:17:55.609Z,101550.09
2023-02-11T05:23:18.218Z,101531.45
2023-02-11T05:28:40.870Z,101517.39
2023-02-11T05:34:04.498Z,101511.33
2023-02-11T05:39:26.925Z,101495.48
2023-02-11T05:44:50.755Z,101493.88
2023-02-11T05:50:13.394Z,101505.63
2023-02-11T05:55:35.671Z,101485.55
2023-02-11T06:00:57.954Z,101483.99
2023-02-11T06:06:26.614Z,101484.22
2023-02-11T06:11:49.378Z,101462.22
2023-02-11T06:17:13.419Z,101483.36
2023-02-11T06:22:35.762Z,101474.41
2023-02-11T06:27:58.414Z,101476.16
2023-02-11T06:33:20.668Z,101474.41
2023-02-11T06:38:43.135Z,101443.47
2023-02-11T06:44:07.175Z,101445.20
2023-02-11T06:49:29.554Z,101438.95
2023-02-11T06:54:51.820Z,101438.03
2023-02-11T07:00:14.730Z,101441.36
2023-02-11T07:05:38.805Z,101448.23
2023-02-11T07:11:01.176Z,101450.64
2023-02-11T07:16:28.940Z,101417.76
2023-02-11T07:21:51.567Z,101422.14
2023-02-11T07:27:13.851Z,101415.72
2023-02-11T07:32:36.076Z,101419.99
2023-02-11T07:37:58.363Z,101412.66
2023-02-11T07:43:20.597Z,101379.72
2023-02-11T07:48:43.419Z,101397.20
2023-02-11T07:54:06.600Z,101391.73
2023-02-11T07:59:30.082Z,101378.91
2023-02-11T08:04:52.882Z,101372.62
2023-02-11T08:10:15.910Z,101366.16
2023-02-11T08:15:38.396Z,101371.02
2023-02-11T08:21:00.642Z,101351.48
2023-02-11T08:26:26.468Z,101375.16
2023-02-11T08:31:53.675Z,101380.80
2023-02-11T08:37:16.064Z,101380.61
2023-02-11T08:42:38.330Z,101377.59
2023-02-11T08:48:01.070Z,101342.80
2023-02-11T08:53:23.285Z,101341.24
2023-02-11T08:58:46.217Z,101375.87
2023-02-11T09:04:08.485Z,101373.15
2023-02-11T09:09:31.853Z,101343.66
2023-02-11T09:14:54.062Z,101360.48
2023-02-11T09:20:16.660Z,101346.78
2023-02-11T09:25:39.361Z,101330.05
2023-02-11T09:31:01.650Z,101335.13
2023-02-11T09:36:25.948Z,101324.44
2023-02-11T09:42:08.118Z,101315.41
2023-02-11T09:47:43.077Z,101267.61
2023-02-11T09:53:31.269Z,101256.19
2023-02-11T09:58:58.483Z,101255.94
2023-02-11T10:04:31.371Z,101248.84
2023-02-11T10:09:58.562Z,101245.90
2023-02-11T10:21:43.030Z,101298.13
2023-02-11T10:27:06.776Z,101270.91
2023-02-11T10:32:39.352Z,101285.05
2023-02-11T10:38:02.798Z,101304.58
2023-02-11T10:43:28.810Z,101305.32
2023-02-11T10:49:00.512Z,101301.77
2023-02-11T10:54:26.225Z,101291.81
2023-02-11T10:59:51.034Z,101298.13
2023-02-11T11:05:36.758Z,101322.77
2023-02-11T11:11:21.125Z,101299.73
2023-02-11T11:16:45.841Z,101309.42
2023-02-11T11:22:12.419Z,101282.70
2023-02-11T11:27:38.246Z,101296.78
2023-02-11T11:33:02.659Z,101302.74
2023-02-11T11:38:28.034Z,101322.08
2023-02-11T11:44:04.298Z,101308.57
2023-02-11T11:49:34.246Z,101303.34
2023-02-11T11:54:55.300Z,101312.95
2023-02-11T12:00:22.648Z,101326.19
2023-02-11T12:06:12.105Z,101318.88
2023-02-11T12:11:45.870Z,101320.45
2023-02-11T12:17:13.091Z,101328.27
2023-02-11T12:22:52.706Z,101315.47
2023-02-11T12:28:40.919Z,101336.75
2023-02-11T12:34:39.796Z,101326.97
2023-02-11T12:40:40.877Z,101343.07
2023-02-11T12:46:22.275Z,101351.45
2023-02-11T12:52:29.996Z,101341.20
2023-02-11T12:57:54.843Z,101351.34
2023-02-11T13:03:49.217Z,101357.40
2023-02-11T13:09:25.615Z,101351.78
2023-02-11T13:14:55.935Z,101362.98
2023-02-11T13:20:39.785Z,101369.17
2023-02-11T13:26:12.504Z,101371.91
2023-02-11T13:31:35.138Z,101370.84
2023-02-11T13:37:02.710Z,101371.64
2023-02-11T13:42:26.745Z,101378.82
2023-02-11T13:47:55.607Z,101395.66
2023-02-11T13:53:19.976Z,101392.06
2023-02-11T13:58:54.836Z,101402.60
2023-02-11T14:04:55.458Z,101415.08
2023-02-11T14:10:38.432Z,101425.72
2023-02-11T14:16:11.456Z,101436.49
2023-02-11T14:21:43.464Z,101446.20
2023-02-11T14:27:18.487Z,101464.83
2023-02-11T14:33:06.814Z,101464.96
2023-02-11T14:38:51.716Z,101496.98
2023-02-11T14:44:26.707Z,101485.48
2023-02-11T14:49:52.267Z,101494.17
2023-02-11T14:55:38.305Z,101496.03
2023-02-11T15:01:13.772Z,101505.03
2023-02-11T15:06:52.574Z,101504.07
2023-02-11T15:12:24.073Z,101504.97
2023-02-11T15:17:49.132Z,101523.50
2023-02-11T15:23:15.320Z,101532.50
2023-02-11T15:28:43.482Z,101535.16
2023-02-11T15:34:06.889Z,101552.06
2023-02-11T15:39:45.222Z,101568.14
2023-02-11T15:45:36.148Z,101564.49
2023-02-11T15:51:05.495Z,101578.78
2023-02-11T15:56:51.962Z,101585.03
2023-02-11T16:02:29.016Z,101601.86
2023-02-11T16:08:06.639Z,101615.97
2023-02-11T16:13:51.428Z,101622.04
2023-02-11T16:19:18.009Z,101640.13
2023-02-11T16:24:43.827Z,101649.03
2023-02-11T16:30:07.572Z,101660.72
2023-02-11T16:35:30.641Z,101660.77
2023-02-11T16:40:53.673Z,101668.58
2023-02-11T16:46:20.243Z,101675.86
2023-02-11T16:51:44.556Z,101682.19
2023-02-11T16:57:08.460Z,101683.91
2023-02-11T17:02:50.832Z,101692.02
2023-02-11T17:08:14.368Z,101705.27
2023-02-11T17:13:36.886Z,101711.39
2023-02-11T17:19:03.305Z,101727.47
2023-02-11T17:24:29.307Z,101743.23
2023-02-11T17:29:55.947Z,101751.22
2023-02-11T17:35:28.422Z,101762.36
2023-02-11T17:40:50.819Z,101765.52
2023-02-11T17:46:15.305Z,101792.12
2023-02-11T17:51:42.267Z,101813.40
2023-02-11T17:57:05.283Z,101832.07
2023-02-11T18:02:31.578Z,101834.61
2023-02-11T18:07:56.525Z,101839.08
2023-02-11T18:13:20.752Z,101838.13
2023-02-11T18:18:43.568Z,101849.11
2023-02-11T18:24:10.876Z,101851.66
2023-02-11T18:29:33.411Z,101863.94
2023-02-11T18:34:55.760Z,101872.84
2023-02-11T18:40:18.810Z,101877.16
2023-02-11T18:45:41.132Z,101880.64
2023-02-11T18:51:04.675Z,101894.76
2023-02-11T18:56:31.528Z,101892.20
2023-02-11T19:01:53.718Z,101902.90
2023-02-11T19:07:15.985Z,101912.02
2023-02-11T19:12:39.576Z,101922.83
2023-02-11T19:18:02.273Z,101928.30
2023-02-11T19:23:24.628Z,101945.72
2023-02-11T19:28:47.872Z,101947.40
2023-02-11T19:34:11.764Z,101946.43
2023-02-11T19:39:34.143Z,101959.20
2023-02-11T19:44:57.740Z,101970.43
2023-02-11T19:50:21.010Z,101984.69
2023-02-11T19:55:43.190Z,101999.22
2023-02-11T20:01:19.999Z,102009.95
2023-02-11T20:06:44.810Z,102025.37
2023-02-11T20:12:07.128Z,102049.13
2023-02-11T20:17:29.407Z,102065.73
2023-02-11T20:22:51.906Z,102082.70
2023-02-11T20:28:14.232Z,102102.30
2023-02-11T20:33:37.878Z,102117.66
2023-02-11T20:39:00.714Z,102122.47
2023-02-11T20:44:25.534Z,102130.23
2023-02-11T20:49:47.993Z,102138.23
2023-02-11T20:55:10.279Z,102148.16
2023-02-11T21:00:34.139Z,102162.31
2023-02-11T21:05:56.641Z,102180.91
2023-02-11T21:11:19.015Z,102193.23
2023-02-11T21:16:41.377Z,102226.45
2023-02-11T21:22:04.380Z,102254.95
2023-02-11T21:27:28.359Z,102265.88
2023-02-11T21:32:50.712Z,102275.83
2023-02-11T21:38:13.291Z,102284.98
2023-02-11T21:43:35.767Z,102290.56
2023-02-11T21:48:58.124Z,102296.91
2023-02-11T21:54:21.115Z,102306.62
2023-02-11T21:59:44.050Z,102321.70
2023-02-11T22:05:06.257Z,102327.05
2023-02-11T22:10:29.375Z,102343.89
2023-02-11T22:15:51.586Z,102344.08
2023-02-11T22:21:27.750Z,102354.88
2023-02-11T22:26:50.974Z,102364.67
2023-02-11T22:32:13.343Z,102365.66
2023-02-11T22:37:35.575Z,102367.55
2023-02-11T22:42:57.777Z,102375.52
2023-02-11T22:48:23.016Z,102383.47
2023-02-11T22:53:46.976Z,102383.48
2023-02-11T22:59:12.353Z,102389.67
2023-02-11T23:04:35.995Z,102402.95
2023-02-11T23:09:58.202Z,102410.06
2023-02-11T23:15:20.609Z,102428.70
2023-02-11T23:20:43.542Z,102435.02
2023-02-11T23:26:05.826Z,102435.11
2023-02-11T23:31:41.446Z,102434.30
2023-02-11T23:37:04.809Z,102436.14
2023-02-11T23:42:27.353Z,102448.53
2023-02-11T23:47:49.651Z,102464.45
2023-02-11T23:53:11.946Z,102471.55
2023-02-11T23:58:35.028Z,102473.30
